Time;durP1;ratioP1;P1;durP2;ratioP2;P2;SDS_P1;SDS_P2;PMS_P1;PMS_P2;Temp;Humidity;BMP_temperature;BMP_pressure;BME280_temperature;BME280_humidity;BME280_pressure;Samples;Min_cycle;Max_cycle;Signal;HPM_P1;HPM_P2
2021/10/01 10:25:13;;;;;;;3.73;1.60;;;;;;;;;;4186296;28;20482;-79
2021/10/01 10:27:40;;;;;;;3.30;1.50;;;;;;;;;;5010553;28;21677;-77
2021/10/01 10:30:08;;;;;;;2.20;2.00;;;;;;;;;;5010036;28;20467;-77
2021/10/01 10:32:35;;;;;;;1.87;1.50;;;;;;;;;;5010941;28;22267;-77
2021/10/01 10:35:03;;;;;;;3.10;2.10;;;;;;;;;;5005304;28;20440;-78
2021/10/01 10:37:38;;;;;;;5.77;2.00;;;;;;;;;;5000973;28;20459;-77
2021/10/01 10:40:07;;;;;;;3.63;1.60;;;;;;;;;;5002867;28;20463;-79
2021/10/01 10:42:37;;;;;;;1.80;1.50;;;;;;;;;;4979546;28;20476;-78
2021/10/01 10:45:10;;;;;;;2.30;1.60;;;;;;;;;;4986575;28;20494;-80
2021/10/01 10:47:53;;;;;;;2.80;1.30;;;;;;;;;;5004491;28;21260;-78
2021/10/01 10:50:34;;;;;;;2.33;1.50;;;;;;;;;;4995864;28;20472;-79
2021/10/01 10:53:10;;;;;;;2.70;1.47;;;;;;;;;;4987181;28;21015;-80
2021/10/01 10:55:38;;;;;;;3.10;1.87;;;;;;;;;;5004330;28;21020;-77
2021/10/01 10:58:20;;;;;;;4.70;2.10;;;;;;;;;;4997139;28;20427;-78
2021/10/01 11:00:51;;;;;;;1.80;1.57;;;;;;;;;;4976835;28;20613;-76
2021/10/01 11:03:19;;;;;;;3.10;1.90;;;;;;;;;;5005451;28;20444;-79
2021/10/01 11:06:06;;;;;;;3.83;1.73;;;;;;;;;;5003746;28;20444;-81
2021/10/01 11:08:33;;;;;;;3.23;1.87;;;;;;;;;;4984294;28;20949;-77
2021/10/01 11:11:00;;;;;;;4.80;1.80;;;;;;;;;;5006151;28;20440;-78
2021/10/01 11:13:29;;;;;;;3.97;2.00;;;;;;;;;;4997136;28;20482;-77
2021/10/01 11:16:11;;;;;;;2.70;1.60;;;;;;;;;;4994491;28;20453;-78
2021/10/01 11:18:59;;;;;;;2.63;1.83;;;;;;;;;;5005719;28;20833;-80
2021/10/01 11:21:32;;;;;;;3.07;1.50;;;;;;;;;;5017145;28;20489;-78
2021/10/01 11:23:59;;;;;;;4.73;1.80;;;;;;;;;;5007368;28;20447;-79
2021/10/01 11:26:26;;;;;;;2.40;1.50;;;;;;;;;;5006144;28;20818;-79
2021/10/01 11:28:54;;;;;;;2.77;1.90;;;;;;;;;;4997405;28;20421;-78
2021/10/01 11:31:21;;;;;;;2.43;1.80;;;;;;;;;;4998501;28;20472;-78
2021/10/01 11:33:50;;;;;;;2.37;1.70;;;;;;;;;;5002602;28;20496;-78
2021/10/01 11:36:18;;;;;;;2.90;1.83;;;;;;;;;;4990845;28;20903;-78
2021/10/01 11:38:45;;;;;;;4.47;2.70;;;;;;;;;;5001431;28;20457;-78
2021/10/01 11:41:14;;;;;;;7.80;4.20;;;;;;;;;;5002053;28;20470;-77
2021/10/01 11:43:50;;;;;;;4.70;3.50;;;;;;;;;;4993613;28;20467;-77
2021/10/01 11:46:25;;;;;;;4.53;2.97;;;;;;;;;;4994494;28;20436;-80
2021/10/01 11:48:55;;;;;;;6.20;2.73;;;;;;;;;;5002420;28;20435;-84
2021/10/01 11:51:22;;;;;;;3.27;2.33;;;;;;;;;;5009581;28;20425;-80
2021/10/01 11:53:49;;;;;;;4.40;2.40;;;;;;;;;;4990680;28;20481;-78
2021/10/01 11:56:16;;;;;;;3.93;1.87;;;;;;;;;;5006576;28;20523;-82
2021/10/01 11:58:43;;;;;;;6.63;2.67;;;;;;;;;;5013975;28;20441;-80
2021/10/01 12:01:12;;;;;;;3.67;2.00;;;;;;;;;;5008719;28;20516;-82
2021/10/01 12:03:48;;;;;;;4.33;2.00;;;;;;;;;;4995150;28;20459;-80
2021/10/01 12:06:21;;;;;;;3.70;1.97;;;;;;;;;;5006250;28;20418;-80
2021/10/01 12:08:57;;;;;;;3.60;1.97;;;;;;;;;;4994659;28;20442;-81
2021/10/01 12:11:26;;;;;;;2.40;1.70;;;;;;;;;;4998587;28;20473;-82
2021/10/01 12:13:53;;;;;;;3.60;2.13;;;;;;;;;;4998319;28;20973;-81
2021/10/01 12:16:20;;;;;;;4.20;1.73;;;;;;;;;;4998606;28;20552;-79
2021/10/01 12:18:54;;;;;;;1.60;1.40;;;;;;;;;;5012971;28;20437;-80
2021/10/01 12:21:24;;;;;;;4.20;1.80;;;;;;;;;;4997441;28;20427;-79
2021/10/01 12:23:56;;;;;;;5.83;1.63;;;;;;;;;;4994263;28;20808;-79
2021/10/01 12:26:26;;;;;;;3.07;1.63;;;;;;;;;;5012793;28;20537;-79
2021/10/01 12:28:55;;;;;;;2.03;1.67;;;;;;;;;;5000629;28;20480;-78
2021/10/01 12:31:22;;;;;;;2.93;1.40;;;;;;;;;;4996770;28;20440;-80
2021/10/01 12:33:50;;;;;;;3.70;1.90;;;;;;;;;;4999302;28;20993;-79
2021/10/01 12:36:18;;;;;;;1.90;1.30;;;;;;;;;;4978784;28;20468;-79
2021/10/01 12:38:46;;;;;;;2.30;1.53;;;;;;;;;;5004122;28;20444;-77
2021/10/01 12:41:15;;;;;;;2.70;1.53;;;;;;;;;;5011469;28;20441;-77
2021/10/01 12:43:44;;;;;;;2.40;1.40;;;;;;;;;;5012729;28;20820;-77
2021/10/01 12:46:11;;;;;;;2.20;1.30;;;;;;;;;;4995409;28;20444;-77
2021/10/01 12:48:38;;;;;;;4.07;1.87;;;;;;;;;;4995801;28;20457;-78
2021/10/01 12:51:21;;;;;;;3.13;1.60;;;;;;;;;;5011614;28;20406;-77
2021/10/01 12:53:49;;;;;;;2.60;1.50;;;;;;;;;;4988672;28;20476;-77
2021/10/01 12:56:18;;;;;;;2.00;1.20;;;;;;;;;;4995536;28;20464;-77
2021/10/01 12:58:45;;;;;;;3.50;1.47;;;;;;;;;;4999002;28;20455;-77
2021/10/01 13:01:19;;;;;;;3.73;1.50;;;;;;;;;;5000086;28;20441;-79
2021/10/01 13:03:47;;;;;;;1.40;1.20;;;;;;;;;;4996596;28;20566;-79
2021/10/01 13:06:29;;;;;;;2.40;1.30;;;;;;;;;;4997338;28;20439;-78
2021/10/01 13:08:57;;;;;;;2.13;1.20;;;;;;;;;;5006184;28;20914;-80
2021/10/01 13:11:24;;;;;;;1.80;1.30;;;;;;;;;;5011500;28;20454;-81
2021/10/01 13:13:52;;;;;;;2.47;1.40;;;;;;;;;;5009209;28;20922;-80
2021/10/01 13:16:25;;;;;;;3.20;1.50;;;;;;;;;;4999119;28;20461;-79
2021/10/01 13:19:03;;;;;;;4.20;1.63;;;;;;;;;;4995324;28;20477;-81
2021/10/01 13:21:30;;;;;;;1.90;1.37;;;;;;;;;;5001244;28;20799;-80
2021/10/01 13:23:59;;;;;;;2.43;1.60;;;;;;;;;;5009409;28;20903;-80
2021/10/01 13:26:27;;;;;;;2.30;1.33;;;;;;;;;;4994346;28;20486;-79
2021/10/01 13:28:59;;;;;;;1.80;1.23;;;;;;;;;;4993613;28;20454;-81
2021/10/01 13:31:26;;;;;;;1.23;1.13;;;;;;;;;;4994450;28;20466;-81
2021/10/01 13:33:54;;;;;;;2.27;1.50;;;;;;;;;;4996559;28;20491;-80
2021/10/01 13:36:21;;;;;;;2.13;1.30;;;;;;;;;;4996354;28;20455;-82
2021/10/01 13:38:49;;;;;;;2.10;1.17;;;;;;;;;;5006943;28;20466;-81
2021/10/01 13:41:19;;;;;;;1.60;1.50;;;;;;;;;;5005169;28;20463;-79
2021/10/01 13:43:47;;;;;;;2.70;1.50;;;;;;;;;;5003824;28;20486;-82
2021/10/01 13:46:15;;;;;;;2.10;1.20;;;;;;;;;;4977003;28;20507;-83
2021/10/01 13:48:42;;;;;;;2.00;1.20;;;;;;;;;;5000979;28;20442;-82
2021/10/01 13:51:09;;;;;;;1.47;1.37;;;;;;;;;;4996937;28;20451;-81
2021/10/01 13:53:37;;;;;;;1.73;1.30;;;;;;;;;;5005268;28;20482;-81
2021/10/01 13:56:04;;;;;;;3.10;1.20;;;;;;;;;;5008252;28;20987;-81
2021/10/01 13:58:33;;;;;;;3.43;1.30;;;;;;;;;;5005206;28;20458;-84
2021/10/01 14:01:00;;;;;;;2.27;1.20;;;;;;;;;;4994603;28;20463;-82
2021/10/01 14:03:27;;;;;;;1.90;1.50;;;;;;;;;;5003368;28;20483;-80
2021/10/01 14:05:56;;;;;;;1.10;1.00;;;;;;;;;;5012136;28;20465;-80
2021/10/01 14:08:23;;;;;;;1.73;1.20;;;;;;;;;;5002322;28;20951;-82
2021/10/01 14:10:51;;;;;;;1.80;1.23;;;;;;;;;;4978842;28;20459;-80
2021/10/01 14:13:18;;;;;;;2.50;1.30;;;;;;;;;;4997299;28;20432;-81
2021/10/01 14:15:47;;;;;;;2.10;1.40;;;;;;;;;;5001596;28;20479;-82
2021/10/01 14:18:15;;;;;;;2.87;1.50;;;;;;;;;;5005562;28;20521;-82
2021/10/01 14:20:42;;;;;;;3.73;1.80;;;;;;;;;;5001885;28;20451;-80
2021/10/01 14:23:10;;;;;;;2.20;1.70;;;;;;;;;;5009670;28;20481;-81
2021/10/01 14:25:38;;;;;;;2.80;1.50;;;;;;;;;;5010963;28;20466;-81
2021/10/01 14:28:06;;;;;;;4.47;1.90;;;;;;;;;;5006450;28;20463;-82
2021/10/01 14:30:35;;;;;;;2.60;1.50;;;;;;;;;;4996738;28;20482;-80
2021/10/01 14:33:05;;;;;;;3.00;1.63;;;;;;;;;;4992227;28;20509;-81
2021/10/01 14:35:32;;;;;;;3.80;1.50;;;;;;;;;;4996919;28;20578;-80
2021/10/01 14:38:06;;;;;;;2.43;1.20;;;;;;;;;;5004176;28;20447;-83
2021/10/01 14:40:33;;;;;;;2.13;1.33;;;;;;;;;;5009002;28;20486;-83
2021/10/01 14:43:01;;;;;;;2.03;1.40;;;;;;;;;;5008842;28;20470;-79
2021/10/01 14:45:28;;;;;;;1.63;1.40;;;;;;;;;;4996476;28;20509;-80
2021/10/01 14:47:55;;;;;;;2.27;1.70;;;;;;;;;;5003867;28;21787;-78
2021/10/01 14:50:24;;;;;;;3.23;1.50;;;;;;;;;;4998086;28;20463;-79
2021/10/01 14:52:51;;;;;;;1.80;1.70;;;;;;;;;;5000172;28;20467;-79
2021/10/01 14:55:18;;;;;;;2.70;1.60;;;;;;;;;;4999853;28;20497;-78
2021/10/01 14:57:48;;;;;;;3.30;1.80;;;;;;;;;;5002337;28;20954;-80
2021/10/01 15:00:15;;;;;;;1.93;1.40;;;;;;;;;;5002730;28;20466;-78
2021/10/01 15:02:43;;;;;;;2.13;1.53;;;;;;;;;;5006620;28;20478;-79
2021/10/01 15:05:10;;;;;;;2.77;1.53;;;;;;;;;;5003783;28;20454;-79
2021/10/01 15:07:38;;;;;;;2.47;1.70;;;;;;;;;;5000650;28;20514;-80
2021/10/01 15:10:06;;;;;;;3.97;1.90;;;;;;;;;;5008637;28;20459;-78
2021/10/01 15:12:34;;;;;;;3.87;1.70;;;;;;;;;;5000810;28;20959;-78
2021/10/01 15:15:01;;;;;;;1.57;1.47;;;;;;;;;;5005406;28;20494;-78
2021/10/01 15:17:29;;;;;;;2.53;1.60;;;;;;;;;;5013351;28;20459;-79
2021/10/01 15:19:56;;;;;;;2.80;1.50;;;;;;;;;;5014288;28;20458;-78
2021/10/01 15:22:23;;;;;;;3.80;1.63;;;;;;;;;;4995917;28;20479;-78
2021/10/01 15:24:51;;;;;;;3.60;1.70;;;;;;;;;;5002903;28;20475;-80
2021/10/01 15:27:19;;;;;;;2.63;1.43;;;;;;;;;;5012535;28;20422;-78
2021/10/01 15:30:00;;;;;;;1.97;1.63;;;;;;;;;;5001077;28;20452;-78
2021/10/01 15:32:28;;;;;;;2.53;1.40;;;;;;;;;;5005235;28;20471;-78
2021/10/01 15:34:55;;;;;;;1.80;1.50;;;;;;;;;;4999633;28;20486;-78
2021/10/01 15:37:22;;;;;;;1.90;1.30;;;;;;;;;;4997085;28;20455;-78
2021/10/01 15:39:49;;;;;;;1.90;1.43;;;;;;;;;;4998373;28;20423;-80
2021/10/01 15:42:18;;;;;;;3.50;2.33;;;;;;;;;;5000338;28;20489;-80
2021/10/01 15:44:45;;;;;;;5.13;1.67;;;;;;;;;;4999679;28;20747;-79
2021/10/01 15:47:12;;;;;;;2.83;1.63;;;;;;;;;;5000728;28;20470;-79
2021/10/01 15:49:39;;;;;;;3.07;1.80;;;;;;;;;;5005213;28;20444;-78
2021/10/01 15:52:07;;;;;;;2.50;1.70;;;;;;;;;;4999039;28;20454;-79
2021/10/01 15:54:34;;;;;;;2.93;1.77;;;;;;;;;;4995386;28;20481;-78
2021/10/01 15:57:01;;;;;;;2.67;1.50;;;;;;;;;;5009624;28;20449;-80
2021/10/01 15:59:29;;;;;;;3.97;1.60;;;;;;;;;;5012446;28;20442;-79
2021/10/01 16:01:56;;;;;;;3.20;1.80;;;;;;;;;;4999778;28;20466;-79
2021/10/01 16:04:24;;;;;;;3.20;2.00;;;;;;;;;;5003800;28;20449;-79
2021/10/01 16:06:51;;;;;;;2.13;1.60;;;;;;;;;;5003445;28;20472;-81
2021/10/01 16:09:18;;;;;;;5.20;2.00;;;;;;;;;;5000243;28;20462;-78
2021/10/01 16:11:45;;;;;;;3.03;2.00;;;;;;;;;;5007265;28;20460;-80
2021/10/01 16:14:13;;;;;;;2.80;1.93;;;;;;;;;;5006603;28;20801;-80
2021/10/01 16:16:42;;;;;;;3.03;2.10;;;;;;;;;;4998579;28;20442;-79
2021/10/01 16:19:10;;;;;;;4.03;2.10;;;;;;;;;;4995294;28;20436;-80
2021/10/01 16:21:37;;;;;;;5.10;2.87;;;;;;;;;;5008615;28;20450;-80
2021/10/01 16:24:04;;;;;;;3.30;2.20;;;;;;;;;;5011213;28;20481;-80
2021/10/01 16:26:34;;;;;;;5.00;2.73;;;;;;;;;;5011390;28;20809;-80
2021/10/01 16:29:01;;;;;;;6.40;3.10;;;;;;;;;;5007534;28;20486;-80
2021/10/01 16:31:28;;;;;;;3.10;2.30;;;;;;;;;;5012623;28;20436;-79
2021/10/01 16:33:57;;;;;;;4.10;2.40;;;;;;;;;;5015101;28;20470;-80
2021/10/01 16:36:24;;;;;;;6.33;2.23;;;;;;;;;;5002923;28;20472;-82
2021/10/01 16:38:51;;;;;;;4.17;2.37;;;;;;;;;;4998761;28;20410;-81
2021/10/01 16:41:19;;;;;;;4.27;2.30;;;;;;;;;;5006598;28;20920;-80
2021/10/01 16:43:46;;;;;;;3.23;1.80;;;;;;;;;;5012556;28;20445;-79
2021/10/01 16:46:14;;;;;;;3.33;1.90;;;;;;;;;;5005109;28;20818;-79
2021/10/01 16:48:41;;;;;;;4.60;1.93;;;;;;;;;;5011518;28;20476;-81
2021/10/01 16:51:09;;;;;;;2.87;1.90;;;;;;;;;;5007928;28;21758;-79
2021/10/01 16:53:36;;;;;;;2.57;1.93;;;;;;;;;;4994472;28;20961;-78
2021/10/01 16:56:04;;;;;;;3.63;2.33;;;;;;;;;;4995528;28;20463;-78
2021/10/01 16:58:31;;;;;;;2.83;1.90;;;;;;;;;;4993805;28;20458;-79
2021/10/01 17:00:58;;;;;;;2.70;2.13;;;;;;;;;;5011943;28;20748;-80
2021/10/01 17:03:25;;;;;;;4.57;2.10;;;;;;;;;;5005164;28;20485;-80
2021/10/01 17:05:52;;;;;;;3.10;2.30;;;;;;;;;;5004641;28;20825;-80
2021/10/01 17:08:21;;;;;;;3.27;2.40;;;;;;;;;;5015013;28;20411;-80
2021/10/01 17:10:48;;;;;;;3.93;2.33;;;;;;;;;;5011539;28;20551;-78
2021/10/01 17:13:17;;;;;;;3.13;2.17;;;;;;;;;;5014447;28;20437;-79
2021/10/01 17:15:44;;;;;;;2.20;2.00;;;;;;;;;;4994572;28;20457;-80
2021/10/01 17:18:11;;;;;;;3.37;2.00;;;;;;;;;;4996273;28;20437;-77
2021/10/01 17:20:38;;;;;;;3.03;2.10;;;;;;;;;;5011344;28;20459;-80
2021/10/01 17:23:10;;;;;;;2.97;2.27;;;;;;;;;;5011337;28;20459;-83
2021/10/01 17:25:40;;;;;;;3.07;2.13;;;;;;;;;;5000812;28;20483;-78
2021/10/01 17:28:07;;;;;;;2.50;1.97;;;;;;;;;;4983412;28;20944;-81
2021/10/01 17:30:34;;;;;;;4.40;2.10;;;;;;;;;;4991500;28;20423;-80
2021/10/01 17:33:02;;;;;;;3.97;2.27;;;;;;;;;;4993469;28;20464;-78
2021/10/01 17:35:30;;;;;;;4.43;2.27;;;;;;;;;;4998227;28;20457;-80
2021/10/01 17:37:57;;;;;;;2.97;2.17;;;;;;;;;;5007960;28;20415;-79
2021/10/01 17:40:25;;;;;;;3.00;2.00;;;;;;;;;;5002524;28;20455;-78
2021/10/01 17:42:53;;;;;;;3.83;2.00;;;;;;;;;;5004078;28;20817;-78
2021/10/01 17:45:20;;;;;;;2.47;2.27;;;;;;;;;;4999900;28;21410;-79
2021/10/01 17:47:48;;;;;;;4.53;2.50;;;;;;;;;;4993089;28;20434;-78
2021/10/01 17:50:15;;;;;;;3.27;2.07;;;;;;;;;;5001849;28;20957;-77
2021/10/01 17:52:42;;;;;;;2.70;1.90;;;;;;;;;;4999729;28;20480;-77
2021/10/01 17:55:10;;;;;;;2.80;1.90;;;;;;;;;;5002557;28;20483;-79
2021/10/01 17:57:38;;;;;;;2.53;2.33;;;;;;;;;;5001660;28;20471;-79
2021/10/01 18:00:07;;;;;;;5.03;2.47;;;;;;;;;;5008787;28;20463;-79
2021/10/01 18:02:34;;;;;;;3.13;2.40;;;;;;;;;;5007335;28;20600;-80
2021/10/01 18:05:01;;;;;;;3.50;2.30;;;;;;;;;;5010353;28;20493;-77
2021/10/01 18:07:32;;;;;;;3.20;2.63;;;;;;;;;;5002037;28;20462;-78
2021/10/01 18:10:00;;;;;;;2.30;2.10;;;;;;;;;;4988311;28;20959;-77
2021/10/01 18:12:27;;;;;;;2.97;2.50;;;;;;;;;;4988998;28;20474;-78
2021/10/01 18:14:54;;;;;;;3.73;2.20;;;;;;;;;;5005162;28;20466;-77
2021/10/01 18:17:23;;;;;;;3.93;2.33;;;;;;;;;;5007744;28;20827;-76
2021/10/01 18:19:50;;;;;;;3.93;2.60;;;;;;;;;;5008065;28;20811;-77
2021/10/01 18:22:20;;;;;;;5.47;2.50;;;;;;;;;;5004195;28;20494;-78
2021/10/01 18:24:47;;;;;;;4.03;2.43;;;;;;;;;;5008031;28;20483;-77
2021/10/01 18:27:14;;;;;;;3.23;2.00;;;;;;;;;;5005554;28;20463;-76
2021/10/01 18:29:41;;;;;;;2.83;2.30;;;;;;;;;;5009961;28;20463;-77
2021/10/01 18:32:09;;;;;;;3.77;2.40;;;;;;;;;;5000567;28;20978;-78
2021/10/01 18:34:38;;;;;;;3.10;2.30;;;;;;;;;;5002049;28;20463;-77
2021/10/01 18:37:06;;;;;;;2.70;2.40;;;;;;;;;;5007793;28;20576;-77
2021/10/01 18:39:33;;;;;;;3.33;2.67;;;;;;;;;;5001279;28;20467;-77
2021/10/01 18:42:00;;;;;;;3.17;2.40;;;;;;;;;;5014779;28;20421;-76
2021/10/01 18:44:27;;;;;;;3.97;2.57;;;;;;;;;;5012446;28;20943;-77
2021/10/01 18:46:54;;;;;;;3.40;2.40;;;;;;;;;;4999730;28;20464;-77
2021/10/01 18:49:21;;;;;;;5.00;2.23;;;;;;;;;;4998920;28;20467;-78
2021/10/01 18:51:50;;;;;;;2.83;1.93;;;;;;;;;;5007691;28;20466;-78
2021/10/01 18:54:17;;;;;;;3.80;2.73;;;;;;;;;;5011423;28;20510;-78
2021/10/01 18:56:44;;;;;;;2.70;2.30;;;;;;;;;;5003212;28;20468;-78
2021/10/01 18:59:11;;;;;;;2.60;2.37;;;;;;;;;;5001433;28;20471;-77
2021/10/01 19:01:38;;;;;;;3.27;2.30;;;;;;;;;;5000532;28;20469;-78
2021/10/01 19:04:06;;;;;;;4.10;2.67;;;;;;;;;;4999590;28;20453;-77
2021/10/01 19:06:34;;;;;;;3.13;2.60;;;;;;;;;;4991699;28;20457;-78
2021/10/01 19:09:02;;;;;;;5.10;2.90;;;;;;;;;;5003190;28;21540;-77
2021/10/01 19:11:30;;;;;;;5.10;2.63;;;;;;;;;;5000103;28;21206;-78
2021/10/01 19:13:57;;;;;;;8.77;2.73;;;;;;;;;;5001501;28;20588;-78
2021/10/01 19:16:25;;;;;;;3.87;2.20;;;;;;;;;;5008626;28;21061;-80
2021/10/01 19:18:52;;;;;;;6.23;2.30;;;;;;;;;;4999285;28;20420;-79
2021/10/01 19:21:19;;;;;;;3.93;2.50;;;;;;;;;;5003474;28;20458;-81
2021/10/01 19:23:53;;;;;;;2.97;2.33;;;;;;;;;;5014332;28;20459;-80
2021/10/01 19:26:36;;;;;;;3.87;2.53;;;;;;;;;;5012297;28;20535;-79
2021/10/01 19:31:45;;;;;;;4.20;2.30;;;;;;;;;;5008600;28;20480;-82
2021/10/01 19:34:12;;;;;;;2.53;2.33;;;;;;;;;;4994585;28;20811;-81
2021/10/01 19:36:39;;;;;;;3.67;2.80;;;;;;;;;;5007918;28;20490;-80
2021/10/01 19:39:06;;;;;;;2.33;2.13;;;;;;;;;;4999708;28;20945;-78
2021/10/01 19:41:35;;;;;;;2.80;2.20;;;;;;;;;;4995517;28;20542;-81
2021/10/01 19:44:02;;;;;;;2.77;2.17;;;;;;;;;;5005812;28;20487;-79
2021/10/01 19:46:29;;;;;;;4.47;2.87;;;;;;;;;;5000908;28;20462;-81
2021/10/01 19:48:56;;;;;;;3.80;2.40;;;;;;;;;;4998923;28;20459;-81
2021/10/01 19:51:24;;;;;;;5.53;2.83;;;;;;;;;;4996297;28;20439;-79
2021/10/01 19:53:51;;;;;;;4.27;2.60;;;;;;;;;;5002956;28;20831;-80
2021/10/01 19:56:19;;;;;;;4.23;2.47;;;;;;;;;;5007456;28;20498;-81
2021/10/01 19:58:49;;;;;;;4.00;3.10;;;;;;;;;;5008425;28;20463;-78
2021/10/01 20:01:20;;;;;;;3.50;2.50;;;;;;;;;;5013838;28;20505;-80
2021/10/01 20:03:47;;;;;;;3.20;2.47;;;;;;;;;;5011563;28;20478;-80
2021/10/01 20:06:15;;;;;;;3.10;2.57;;;;;;;;;;5005483;28;20459;-81
2021/10/01 20:08:42;;;;;;;5.90;2.90;;;;;;;;;;5012799;28;20431;-78
2021/10/01 20:11:11;;;;;;;3.50;2.27;;;;;;;;;;4997952;28;20463;-78
2021/10/01 20:13:38;;;;;;;4.27;2.60;;;;;;;;;;4994459;28;20483;-80
2021/10/01 20:16:07;;;;;;;4.07;2.60;;;;;;;;;;4993641;28;20484;-81
2021/10/01 20:19:00;;;;;;;3.97;3.07;;;;;;;;;;4982797;28;20451;-81
2021/10/01 20:21:37;;;;;;;3.97;2.90;;;;;;;;;;5013360;28;20924;-79
2021/10/01 20:24:14;;;;;;;5.87;2.90;;;;;;;;;;5009408;28;20820;-79
2021/10/01 20:48:13;;;;;;;3.37;2.53;;;;;;;;;;4994364;28;20424;-78
2021/10/01 20:50:41;;;;;;;3.67;2.53;;;;;;;;;;4995799;28;20569;-80
2021/10/01 20:53:08;;;;;;;4.50;2.63;;;;;;;;;;4995528;28;21087;-78
2021/10/01 20:55:35;;;;;;;3.80;2.70;;;;;;;;;;5009775;28;20459;-81
2021/10/01 20:58:06;;;;;;;4.30;2.50;;;;;;;;;;5008375;28;20464;-82
2021/10/01 21:00:42;;;;;;;3.50;3.13;;;;;;;;;;4996344;28;20811;-79
2021/10/01 21:03:24;;;;;;;4.73;2.80;;;;;;;;;;4993969;28;20467;-76
2021/10/01 21:35:55;;;;;;;4.03;2.30;;;;;;;;;;5010113;28;20437;-79
2021/10/01 21:44:10;;;;;;;4.23;2.60;;;;;;;;;;5005116;28;20985;-81
2021/10/01 21:46:41;;;;;;;4.10;2.27;;;;;;;;;;5014149;28;20786;-83
2021/10/01 21:49:09;;;;;;;4.37;2.47;;;;;;;;;;5011110;28;20440;-83
2021/10/01 21:51:38;;;;;;;3.70;2.53;;;;;;;;;;4998479;28;20439;-80
2021/10/01 21:54:07;;;;;;;3.40;2.73;;;;;;;;;;4997627;28;20963;-79
2021/10/01 21:56:35;;;;;;;4.93;2.57;;;;;;;;;;5006876;28;20490;-83
2021/10/01 21:59:04;;;;;;;4.80;2.60;;;;;;;;;;5010293;28;20559;-83
2021/10/01 22:01:32;;;;;;;3.50;2.33;;;;;;;;;;4998039;28;20454;-78
2021/10/01 22:09:28;;;;;;;3.53;2.27;;;;;;;;;;4998419;28;20508;-81
2021/10/01 22:14:43;;;;;;;8.00;2.80;;;;;;;;;;5009036;28;20768;-81
2021/10/01 22:20:05;;;;;;;2.73;1.87;;;;;;;;;;5011340;28;20466;-83
2021/10/01 22:22:32;;;;;;;3.40;2.60;;;;;;;;;;5011486;28;20481;-79
2021/10/01 22:25:01;;;;;;;2.30;2.10;;;;;;;;;;4997764;28;21067;-81
2021/10/01 22:27:28;;;;;;;3.83;2.03;;;;;;;;;;4989557;28;20450;-81
2021/10/01 22:29:56;;;;;;;2.97;2.33;;;;;;;;;;5011044;28;20450;-80
2021/10/01 22:32:24;;;;;;;2.73;2.40;;;;;;;;;;5010782;28;20467;-84
2021/10/01 22:34:51;;;;;;;5.70;2.40;;;;;;;;;;4996730;28;20459;-82
2021/10/01 22:37:20;;;;;;;4.10;1.93;;;;;;;;;;4977299;28;20501;-81
2021/10/01 22:39:49;;;;;;;6.50;3.00;;;;;;;;;;5004033;28;20460;-81
2021/10/01 22:42:21;;;;;;;4.13;2.80;;;;;;;;;;4996875;28;20452;-84
2021/10/01 22:44:50;;;;;;;5.50;2.67;;;;;;;;;;5004649;28;20464;-82
2021/10/01 22:47:18;;;;;;;9.30;3.13;;;;;;;;;;5010711;28;20810;-79
2021/10/01 22:49:50;;;;;;;2.93;2.10;;;;;;;;;;5011947;28;20445;-80
2021/10/01 22:52:20;;;;;;;7.23;3.00;;;;;;;;;;4991580;28;20882;-80
2021/10/01 22:54:48;;;;;;;4.17;2.20;;;;;;;;;;5000774;28;20552;-82
2021/10/01 22:57:16;;;;;;;9.07;3.10;;;;;;;;;;4995998;28;20496;-84
2021/10/01 22:59:45;;;;;;;7.60;3.00;;;;;;;;;;4983701;28;20459;-82
2021/10/01 23:02:15;;;;;;;3.83;2.63;;;;;;;;;;5010379;28;20471;-80
2021/10/01 23:04:42;;;;;;;4.67;2.57;;;;;;;;;;5009869;28;20836;-80
2021/10/01 23:07:09;;;;;;;4.60;3.10;;;;;;;;;;5011437;28;20455;-83
2021/10/01 23:09:37;;;;;;;3.77;2.50;;;;;;;;;;5009429;28;20470;-82
2021/10/01 23:12:07;;;;;;;4.87;2.97;;;;;;;;;;5000873;28;20447;-79
2021/10/01 23:14:43;;;;;;;3.50;2.40;;;;;;;;;;5008102;28;20826;-80
2021/10/01 23:17:23;;;;;;;3.30;2.60;;;;;;;;;;5004657;28;20487;-84
2021/10/01 23:41:43;;;;;;;4.10;2.90;;;;;;;;;;4994707;28;20458;-82
2021/10/01 23:52:22;;;;;;;3.60;2.10;;;;;;;;;;4998714;28;20467;-82
